Latest Weather Observations for Burketown Airport

IDQ60801

Issued at 6:22 am EST Friday 22 October 2021 (issued every 10 minutes, with the page automatically refreshed every 10 minutes)

About weather observations | Map of weather stations | Latest weather observations for QLD | Other Formats
Station Details ID: 029077 Name: BURKETOWN AIRPORT Lat: -17.75 Lon: 139.54 Height: 5.7 m
Data from the previous 72 hours. | See also: Recent months at Burketown Airport
Date/Time
EST
Temp
°C
App
Temp
°C
Dew
Point
°C
Rel
Hum
%
Delta-T
°C
Wind Press
QNH
hPa
Press
MSL
hPa
Rain since
9am
mm
Dir  Spd
km/h
Gust
km/h
Spd
kts
Gust
kts
22/06:00am 23.1 26.7 22.4 96 0.5 NNE 7 9 4 5 1009.6 1009.5 2.8
22/05:30am 23.3 28.2 22.3 94 0.7 CALM 0 0 0 0 1009.2 1009.1 2.8
22/05:00am 23.4 28.3 22.4 94 0.7 CALM 0 0 0 0 1008.7 1008.6 2.8
22/04:30am 23.4 28.3 22.4 94 0.7 CALM 0 0 0 0 1008.6 1008.5 2.8
22/04:00am 23.7 27.6 22.5 93 0.8 ENE 6 9 3 5 1008.2 1008.1 2.8
22/03:30am 23.7 27.3 22.1 91 1.1 ESE 6 9 3 5 1008.3 1008.2 2.8
22/03:00am 24.1 27.8 22.2 89 1.3 SSE 6 7 3 4 1008.3 1008.2 2.8
22/02:30am 24.5 28.0 22.2 87 1.5 SE 7 9 4 5 1008.3 1008.2 2.8
22/02:00am 24.9 28.1 22.4 86 1.7 ESE 9 9 5 5 1008.5 1008.4 2.8
22/01:30am 25.2 28.5 22.5 85 1.8 E 9 13 5 7 1008.8 1008.7 2.8
22/01:00am 25.4 29.0 22.3 83 2.1 NE 7 9 4 5 1009.4 1009.3 2.8
22/12:30am 25.7 28.2 22.4 82 2.2 ESE 13 17 7 9 1009.7 1009.6 2.8
22/12:00am 25.7 28.2 22.4 82 2.2 E 13 15 7 8 1009.6 1009.5 2.8
 
Date/Time
EST
Temp
°C
App
Temp
°C
Dew
Point
°C
Rel
Hum
%
Delta-T
°C
Wind Press
QNH
hPa
Press
MSL
hPa
Rain since
9am
mm
Dir  Spd
km/h
Gust
km/h
Spd
kts
Gust
kts
21/11:30pm 25.7 27.0 21.6 78 2.7 E 17 24 9 13 1010.1 1010.0 2.8
21/11:00pm 25.6 28.6 21.3 77 2.8 NE 7 9 4 5 1009.2 1009.1 2.8
21/10:30pm 25.1 27.6 21.8 82 2.2 ESE 11 13 6 7 1009.2 1009.1 2.8
21/10:00pm 25.5 29.1 22.0 81 2.3 WSW 6 6 3 3 1008.3 1008.2 2.8
21/09:30pm 26.0 28.4 20.8 73 3.4 NW 9 11 5 6 1008.0 1007.9 2.8
21/09:00pm 26.0 28.7 20.6 72 3.5 WSW 7 9 4 5 1008.2 1008.1 2.8
21/08:30pm 26.4 29.3 20.7 71 3.7 NW 6 9 3 5 1007.9 1007.8 2.8
21/08:00pm 26.6 28.8 19.7 66 4.5 NW 7 13 4 7 1007.7 1007.6 2.8
21/07:30pm 25.7 25.3 21.6 78 2.7 N 26 33 14 18 1007.1 1007.0 2.6
21/07:21pm 25.5 25.9 22.4 83 2.1 N 24 33 13 18 1006.9 1006.8 2.6
21/07:00pm 24.9 27.5 23.3 91 1.1 NNW 15 19 8 10 1008.9 1008.8 2.6
21/06:30pm 24.9 28.4 23.5 92 1.0 NNW 11 17 6 9 1009.7 1009.6 2.2
21/06:00pm 25.1 27.3 23.3 90 1.2 SSE 17 22 9 12 1009.7 1009.6 1.6
21/05:30pm 25.2 27.2 23.6 91 1.1 S 19 22 10 12 1010.5 1010.4 1.2
21/05:00pm 25.2 27.4 23.3 89 1.3 SSE 17 22 9 12 1009.8 1009.7 0.8
21/04:30pm 25.2 27.3 22.5 85 1.8 S 15 20 8 11 1009.6 1009.5 0.6
21/04:00pm 25.2 25.7 22.7 86 1.7 SSE 24 35 13 19 1010.0 1009.9 0.2
21/03:58pm 25.2 25.3 22.5 85 1.8 SSE 26 35 14 19 1010.0 1009.9 0.0
21/03:48pm 26.8 25.7 21.1 71 3.8 S 28 35 15 19 1009.6 1009.5 0.0
21/03:46pm 26.7 26.1 21.2 72 3.6 S 26 35 14 19 1009.7 1009.6 0.0
21/03:30pm 26.5 26.0 20.8 71 3.8 S 24 33 13 18 1009.5 1009.4 0.0
21/03:28pm 26.5 26.0 20.8 71 3.8 S 24 33 13 18 1009.4 1009.3 0.0
21/03:24pm 26.8 26.2 20.4 68 4.2 S 24 33 13 18 1009.3 1009.2 0.0
21/03:14pm 27.6 26.9 20.2 64 4.8 S 24 33 13 18 1009.3 1009.2 0.0
21/03:00pm 27.4 25.1 20.2 65 4.7 S 32 44 17 24 1008.5 1008.4 0.0
21/02:52pm 27.7 25.1 19.8 62 5.1 SSW 33 44 18 24 1007.7 1007.6 0.0
21/02:50pm 28.3 25.7 19.8 60 5.5 SSW 33 44 18 24 1007.5 1007.4 0.0
21/02:42pm 29.1 25.1 19.4 55 6.3 SW 39 52 21 28 1007.5 1007.4 0.0
21/02:30pm 30.0 26.5 20.5 56 6.3 SW 39 61 21 33 1007.1 1007.0 0.0
21/02:20pm 32.7 31.7 19.6 46 8.6 NW 24 50 13 27 1006.8 1006.7 0.0
21/02:10pm 36.0 36.4 20.7 41 10.3 N 19 28 10 15 1005.6 1005.5 0.0
21/02:00pm 36.2 36.7 20.8 40 10.4 NNW 19 28 10 15 1005.8 1005.7 0.0
21/01:54pm 36.4 36.8 21.0 40 10.4 N 20 33 11 18 1006.1 1006.0 0.0
21/01:42pm 38.3 38.2 21.5 38 11.5 N 24 33 13 18 1005.8 1005.7 0.0
21/01:30pm 38.1 39.1 21.7 38 11.3 N 19 32 10 17 1006.3 1006.2 0.0
21/01:00pm 36.8 37.8 21.8 42 10.3 NNE 19 33 10 18 1007.1 1007.0 0.0
21/12:30pm 38.4 40.3 22.8 40 10.9 N 17 30 9 16 1007.3 1007.2 0.0
21/12:00pm 37.6 38.9 21.7 39 10.9 N 17 24 9 13 1007.6 1007.5 0.0
21/11:30am 37.4 38.2 23.1 44 10.0 N 24 33 13 18 1007.9 1007.8 0.0
21/11:00am 37.0 38.3 22.7 43 9.9 N 20 30 11 16 1008.2 1008.1 0.0
21/10:30am 36.3 37.3 21.7 42 10.0 N 19 30 10 16 1008.5 1008.4 0.0
21/10:00am 34.9 36.7 22.6 49 8.5 NNW 17 24 9 13 1008.6 1008.5 0.0
21/09:30am 34.4 36.8 23.7 53 7.5 NNW 17 24 9 13 1008.6 1008.5 0.0
21/09:00am 33.1 35.1 24.0 59 6.4 NNW 20 28 11 15 1008.9 1008.8 0.0
21/08:30am 30.9 32.1 23.8 66 4.9 NNW 24 32 13 17 1008.7 1008.6 0.0
21/08:00am 30.6 31.8 23.8 67 4.7 NNW 24 33 13 18 1008.0 1007.9 0.0
21/07:30am 29.1 31.8 24.7 77 3.1 N 19 26 10 14 1007.8 1007.7 0.0
21/07:00am 27.9 31.1 24.9 84 2.1 NNW 17 24 9 13 1007.8 1007.7 0.0
21/06:30am 27.1 30.6 24.9 88 1.5 NNW 15 20 8 11 1007.6 1007.5 0.0
21/06:00am 26.7 30.4 24.5 88 1.5 NNW 13 17 7 9 1007.4 1007.3 0.0
21/05:30am 26.7 29.9 24.4 87 1.6 NW 15 19 8 10 1007.3 1007.2 0.0
21/05:00am 26.8 30.4 24.3 86 1.7 NNW 13 17 7 9 1006.7 1006.6 0.0
21/04:30am 26.6 30.7 23.9 85 1.9 NNW 9 11 5 6 1006.6 1006.5 0.0
21/04:00am 26.9 30.2 23.8 83 2.1 NW 13 17 7 9 1006.5 1006.4 0.0
21/03:30am 27.3 30.0 23.5 80 2.6 NW 15 20 8 11 1006.6 1006.5 0.0
21/03:00am 27.5 30.2 23.5 79 2.7 NW 15 19 8 10 1006.7 1006.6 0.0
21/02:30am 27.4 30.8 23.4 79 2.7 NNW 11 17 6 9 1006.7 1006.6 0.0
21/02:00am 27.4 29.2 23.2 78 2.9 NNW 19 22 10 12 1006.8 1006.7 0.0
21/01:30am 27.6 29.6 23.0 76 3.1 NW 17 22 9 12 1007.1 1007.0 0.0
21/01:00am 28.0 29.6 23.2 75 3.3 NNW 20 26 11 14 1007.4 1007.3 0.0
21/12:30am 28.1 29.8 23.0 74 3.5 NNW 19 24 10 13 1007.9 1007.8 0.0
21/12:00am 28.3 29.7 22.8 72 3.7 NW 20 26 11 14 1008.1 1008.0 0.0
 
Date/Time
EST
Temp
°C
App
Temp
°C
Dew
Point
°C
Rel
Hum
%
Delta-T
°C
Wind Press
QNH
hPa
Press
MSL
hPa
Rain since
9am
mm
Dir  Spd
km/h
Gust
km/h
Spd
kts
Gust
kts
20/11:30pm 28.4 29.8 22.6 71 3.9 NNW 19 26 10 14 1008.2 1008.1 0.0
20/11:00pm 28.7 30.0 22.4 68 4.3 NNW 19 26 10 14 1008.4 1008.3 0.0
20/10:30pm 28.9 29.9 22.2 67 4.5 NNW 20 28 11 15 1008.5 1008.4 0.0
20/10:00pm 29.2 29.7 21.9 64 4.9 NNW 22 30 12 16 1008.6 1008.5 0.0
20/09:30pm 29.5 28.9 22.0 64 5.1 NNW 28 39 15 21 1008.6 1008.5 0.0
20/09:00pm 29.7 29.6 22.9 67 4.7 NNW 28 35 15 19 1008.3 1008.2 0.0
20/08:30pm 29.9 29.3 23.3 67 4.5 NNW 32 41 17 22 1008.0 1007.9 0.0
20/08:00pm 30.2 29.8 23.1 65 4.9 NNW 30 41 16 22 1007.9 1007.8 0.0
20/07:30pm 30.8 30.3 22.1 59 5.9 N 28 37 15 20 1007.7 1007.6 0.0
20/07:00pm 31.4 29.9 21.0 54 7.0 N 30 39 16 21 1007.6 1007.5 0.0
20/06:30pm 32.3 29.7 19.9 48 8.2 N 33 44 18 24 1007.3 1007.2 0.0
20/06:00pm 33.3 29.1 19.0 42 9.4 N 39 54 21 29 1006.9 1006.8 0.0
20/05:30pm 34.9 30.9 18.5 38 10.7 N 37 52 20 28 1006.9 1006.8 0.0
20/05:00pm 35.4 30.4 18.0 35 11.3 N 41 54 22 29 1006.6 1006.5 0.0
20/04:30pm 35.7 32.0 20.0 39 10.5 N 39 52 21 28 1006.5 1006.4 0.0
20/04:00pm 36.5 32.1 19.4 36 11.4 N 41 54 22 29 1006.7 1006.6 0.0
20/03:30pm 36.9 32.1 17.5 32 12.6 N 39 50 21 27 1007.1 1007.0 0.0
20/03:00pm 37.1 33.7 19.1 35 11.9 N 35 48 19 26 1007.6 1007.5 0.0
20/02:30pm 37.2 35.5 21.3 39 10.8 N 32 41 17 22 1008.1 1008.0 0.0
20/02:00pm 37.0 36.4 22.7 43 9.9 NNW 30 41 16 22 1008.7 1008.6 0.0
20/01:30pm 37.5 37.9 23.2 44 10.0 NNW 26 37 14 20 1009.2 1009.1 0.0
20/01:00pm 37.3 37.9 23.4 45 9.7 NNW 26 39 14 21 1009.9 1009.8 0.0
20/12:30pm 36.9 37.0 21.9 42 10.3 NNW 24 33 13 18 1010.6 1010.5 0.0
20/12:00pm 36.3 36.5 22.1 43 9.8 NNW 24 30 13 16 1011.1 1011.0 0.0
20/11:30am 35.5 36.1 22.1 45 9.2 NNW 22 32 12 17 1011.4 1011.3 0.0
20/11:00am 34.6 34.9 22.3 48 8.4 NNW 24 33 13 18 1011.9 1011.8 0.0
20/10:30am 35.4 35.2 20.5 41 10.0 NNW 22 32 12 17 1012.0 1011.9 0.0
20/10:00am 33.2 33.1 21.4 50 8.0 N 24 32 13 17 1012.2 1012.1 0.0
20/09:30am 32.2 33.2 22.9 58 6.4 N 22 35 12 19 1012.6 1012.5 0.0
20/09:00am 31.5 32.7 22.5 59 6.1 N 20 26 11 14 1012.6 1012.5 0.0
20/08:30am 29.7 31.8 22.4 65 5.0 NNW 15 19 8 10 1012.1 1012.0 0.0
20/08:00am 28.9 31.5 21.9 66 4.7 N 11 15 6 8 1011.9 1011.8 0.0
20/07:30am 27.8 31.0 21.6 69 4.1 NNE 7 9 4 5 1011.4 1011.3 0.0
20/07:00am 26.8 31.2 21.3 72 3.7 CALM 0 0 0 0 1011.0 1010.9 0.0
20/06:30am 26.1 29.3 21.3 75 3.2 WSW 6 7 3 4 1010.9 1010.8 0.0
20/06:00am 25.8 29.1 21.5 77 2.9 SW 6 7 3 4 1010.5 1010.4 0.0
20/05:30am 25.7 29.4 21.4 77 2.8 S 4 7 2 4 1010.3 1010.2 0.0
20/05:00am 26.4 29.6 22.3 78 2.8 SSW 9 15 5 8 1010.4 1010.3 0.0
20/04:30am 27.0 30.3 22.6 77 3.0 WSW 9 11 5 6 1010.1 1010.0 0.0
20/04:00am 27.3 30.2 23.1 78 2.9 SW 13 17 7 9 1010.4 1010.3 0.0
20/03:30am 27.0 30.2 23.0 79 2.7 WSW 11 13 6 7 1010.0 1009.9 0.0
20/03:00am 26.8 29.7 23.1 80 2.5 W 13 15 7 8 1009.9 1009.8 0.0
20/02:30am 26.2 29.2 22.7 81 2.4 W 11 15 6 8 1010.0 1009.9 0.0
20/02:00am 26.2 29.1 22.5 80 2.5 WNW 11 13 6 7 1010.1 1010.0 0.0
20/01:30am 26.5 29.5 22.6 79 2.6 NW 11 11 6 6 1010.4 1010.3 0.0
20/01:00am 26.5 30.1 22.3 78 2.8 NNW 7 9 4 5 1010.8 1010.7 0.0
20/12:30am 26.8 29.7 22.4 77 3.0 NW 11 15 6 8 1011.0 1010.9 0.0
20/12:00am 26.7 29.2 21.7 74 3.3 WNW 11 13 6 7 1011.3 1011.2 0.0
 
Date/Time
EST
Temp
°C
App
Temp
°C
Dew
Point
°C
Rel
Hum
%
Delta-T
°C
Wind Press
QNH
hPa
Press
MSL
hPa
Rain since
9am
mm
Dir  Spd
km/h
Gust
km/h
Spd
kts
Gust
kts
19/11:30pm 27.1 31.3 20.9 69 4.1 CALM 0 7 0 4 1011.7 1011.6 0.0
19/11:00pm 28.0 32.8 22.2 70 3.9 CALM 0 0 0 0 1012.1 1012.0 0.0
19/10:30pm 28.3 32.2 22.5 71 3.9 N 6 7 3 4 1012.0 1011.9 0.0
19/10:00pm 28.7 32.7 23.1 71 3.8 N 7 9 4 5 1012.0 1011.9 0.0
19/09:30pm 28.8 33.0 23.5 73 3.6 N 7 11 4 6 1011.7 1011.6 0.0
19/09:00pm 29.2 32.7 22.9 69 4.3 NNE 9 13 5 7 1011.0 1010.9 0.0
19/08:30pm 29.7 32.4 22.9 67 4.6 NNE 13 17 7 9 1011.1 1011.0 0.0
19/08:00pm 30.2 32.9 24.1 70 4.2 N 17 20 9 11 1010.6 1010.5 0.0
19/07:30pm 30.6 32.4 23.5 66 4.9 N 20 24 11 13 1010.4 1010.3 0.0
19/07:00pm 31.3 32.7 22.9 61 5.8 N 20 26 11 14 1009.7 1009.6 0.0
19/06:30pm 31.9 31.1 21.7 54 6.9 N 28 35 15 19 1009.2 1009.1 0.0
19/06:00pm 33.2 32.5 21.0 48 8.2 N 26 35 14 19 1008.6 1008.5 0.0
19/05:30pm 33.7 34.1 23.7 56 7.0 N 28 35 15 19 1008.6 1008.5 0.0
19/05:00pm 34.8 32.8 20.7 43 9.5 N 32 43 17 23 1008.5 1008.4 0.0
19/04:30pm 35.6 33.0 18.7 37 11.1 N 30 41 16 22 1008.7 1008.6 0.0
19/04:00pm 35.6 35.3 22.5 46 9.0 NNE 28 35 15 19 1008.9 1008.8 0.0
19/03:30pm 36.9 36.4 22.2 42 10.1 NNE 28 37 15 20 1008.9 1008.8 0.0
19/03:00pm 36.8 36.3 22.9 44 9.7 NNE 30 41 16 22 1009.3 1009.2 0.0
19/02:30pm 36.0 35.7 22.5 45 9.3 N 28 41 15 22 1009.8 1009.7 0.0
19/02:00pm 35.8 35.4 22.4 46 9.2 N 28 44 15 24 1010.4 1010.3 0.0
19/01:30pm 36.1 35.8 22.6 45 9.3 NNE 28 43 15 23 1011.0 1010.9 0.0
19/01:00pm 37.5 34.5 14.7 25 14.3 N 24 35 13 19 1011.4 1011.3 0.0
19/12:30pm 36.3 36.5 21.3 41 10.2 N 22 32 12 17 1011.9 1011.8 0.0
19/12:00pm 35.7 35.8 21.9 44 9.4 NNE 24 33 13 18 1012.2 1012.1 0.0
19/11:30am 35.7 32.9 14.4 28 13.2 NNE 22 37 12 20 1012.3 1012.2 0.0
19/11:00am 35.0 35.2 21.3 45 9.3 NNE 22 37 12 20 1012.4 1012.3 0.0
19/10:30am 34.7 35.1 21.7 46 8.9 NE 22 37 12 20 1013.2 1013.1 0.0
19/10:00am 34.1 33.4 19.4 42 9.7 NNE 22 39 12 21 1013.3 1013.2 0.0
19/09:30am 35.7 36.1 16.4 31 12.3 WSW 9 17 5 9 1012.9 1012.8 0.0
19/09:00am 34.0 34.6 18.5 40 10.1 WSW 13 17 7 9 1012.8 1012.7 0.0
19/08:30am 32.1 33.2 20.4 50 7.8 W 15 20 8 11 1012.5 1012.4 0.0
19/08:00am 29.6 31.4 22.6 66 4.8 W 17 20 9 11 1012.1 1012.0 0.0
19/07:30am 27.0 30.3 23.9 83 2.1 W 13 19 7 10 1012.0 1011.9 0.0
19/07:00am 24.1 27.5 23.4 96 0.5 W 11 13 6 7 1011.6 1011.5 0.0
19/06:36am 22.7 25.7 22.7 100 0.0 WSW 11 13 6 7 1011.6 1011.5 0.0
19/06:30am 22.1 24.8 22.1 100 0.0 W 11 13 6 7 1011.5 1011.4 0.0
19/06:25am 21.7 24.2 21.7 100 0.0 W 11 13 6 7 1011.5 1011.4 0.0

Other formats

Comma delimited format used in spreadsheet applications
http://www.bom.gov.au/fwo/IDQ60801/IDQ60801.94260.axf

JavaScript Object Notation format (JSON) in row-major order
http://www.bom.gov.au/fwo/IDQ60801/IDQ60801.94260.json

Data quality

Most of these data are generated automatically and are frequently updated. Quality checks on data are not normally performed. It is possible for incorrect values to appear. Refer to information at About Latest Weather Observations and please check the disclaimer before using these data.